Time;durP1;ratioP1;P1;durP2;ratioP2;P2;SDS_P1;SDS_P2;PMS_P1;PMS_P2;Temp;Humidity;BMP_temperature;BMP_pressure;BME280_temperature;BME280_humidity;BME280_pressure;Samples;Min_cycle;Max_cycle;Signal;HPM_P1;HPM_P2
2024/04/09 00:02:13;;;;;;;16.03;4.47;;;19.50;1.00;;;;;;5017563;28;20175;-44
2024/04/09 00:04:40;;;;;;;11.90;4.60;;;19.40;1.00;;;;;;5018840;28;20183;-44
2024/04/09 00:07:06;;;;;;;8.57;3.67;;;19.30;1.00;;;;;;5018978;28;20544;-45
2024/04/09 00:09:31;;;;;;;12.53;4.80;;;19.30;1.00;;;;;;5018704;28;20423;-43
2024/04/09 00:11:58;;;;;;;8.83;3.70;;;19.20;1.00;;;;;;5018891;28;20864;-45
2024/04/09 00:14:25;;;;;;;7.87;3.77;;;19.10;1.00;;;;;;5019592;28;20211;-44
2024/04/09 00:16:53;;;;;;;10.53;4.00;;;19.10;1.00;;;;;;5019518;28;20425;-44
2024/04/09 00:19:20;;;;;;;14.60;4.50;;;19.00;1.00;;;;;;5002215;28;20461;-45
2024/04/09 00:21:47;;;;;;;10.47;4.50;;;18.90;1.00;;;;;;5019334;28;20541;-43
2024/04/09 00:24:17;;;;;;;13.83;4.43;;;18.80;1.00;;;;;;5018432;28;20503;-44
2024/04/09 00:26:44;;;;;;;11.20;4.33;;;18.70;1.00;;;;;;5019018;28;20580;-44
2024/04/09 00:29:10;;;;;;;17.00;5.80;;;18.60;1.00;;;;;;5000943;28;20407;-45
2024/04/09 00:31:37;;;;;;;13.27;4.00;;;18.50;1.00;;;;;;5018212;28;20421;-44
2024/04/09 00:34:04;;;;;;;10.87;4.30;;;18.50;1.00;;;;;;5000754;28;20437;-44
2024/04/09 00:36:31;;;;;;;8.43;4.10;;;18.40;1.00;;;;;;5017802;28;20865;-44
2024/04/09 00:39:00;;;;;;;7.30;3.70;;;18.40;1.00;;;;;;5017775;28;20445;-47
2024/04/09 00:41:26;;;;;;;10.07;4.30;;;18.30;1.00;;;;;;5016631;28;20422;-43
2024/04/09 00:43:52;;;;;;;7.60;3.70;;;18.30;1.00;;;;;;5017308;28;20426;-44
2024/04/09 00:46:19;;;;;;;8.03;3.63;;;18.30;1.00;;;;;;5017514;28;20535;-43
2024/04/09 00:48:45;;;;;;;9.53;3.73;;;18.30;1.00;;;;;;5018399;28;20180;-45
2024/04/09 00:51:13;;;;;;;12.43;4.60;;;18.20;1.00;;;;;;5001070;28;20426;-43
2024/04/09 00:53:41;;;;;;;14.03;5.10;;;18.20;1.00;;;;;;5017740;28;20183;-44
2024/04/09 00:56:08;;;;;;;10.90;4.10;;;18.10;1.00;;;;;;5017690;28;20406;-46
2024/04/09 00:58:34;;;;;;;11.50;4.97;;;18.10;1.00;;;;;;5001174;28;20727;-46
2024/04/09 01:01:00;;;;;;;10.70;4.27;;;18.10;1.00;;;;;;5001188;28;20449;-43
2024/04/09 01:03:26;;;;;;;16.13;5.43;;;18.00;1.00;;;;;;5018452;28;20434;-43
2024/04/09 01:05:53;;;;;;;12.63;4.67;;;18.00;1.00;;;;;;5018166;28;20432;-44
2024/04/09 01:08:18;;;;;;;14.03;4.80;;;17.90;1.00;;;;;;5017234;28;20191;-44
2024/04/09 01:10:44;;;;;;;9.93;4.83;;;18.00;1.00;;;;;;5016578;28;20469;-46
2024/04/09 01:13:09;;;;;;;11.00;3.47;;;17.90;1.00;;;;;;5017959;28;20270;-42
2024/04/09 01:15:36;;;;;;;7.80;4.10;;;17.90;1.00;;;;;;5017989;28;20188;-47
2024/04/09 01:18:03;;;;;;;8.53;4.63;;;18.00;1.00;;;;;;5017847;28;20195;-45
2024/04/09 01:20:28;;;;;;;10.07;5.07;;;18.00;1.00;;;;;;5018100;28;20444;-46
2024/04/09 01:22:55;;;;;;;11.57;4.07;;;18.00;1.00;;;;;;5018434;28;20501;-45
2024/04/09 01:25:20;;;;;;;12.87;4.10;;;18.00;1.00;;;;;;5017343;28;20462;-46
2024/04/09 01:27:46;;;;;;;9.67;4.10;;;18.00;1.00;;;;;;5017454;28;20509;-44
2024/04/09 01:30:13;;;;;;;13.27;4.97;;;18.00;1.00;;;;;;5017639;28;20492;-46
2024/04/09 01:32:43;;;;;;;14.30;4.63;;;17.90;1.00;;;;;;5017421;28;20195;-45
2024/04/09 01:35:09;;;;;;;12.67;4.87;;;17.80;1.00;;;;;;5017464;28;20418;-44
2024/04/09 01:37:36;;;;;;;10.53;4.03;;;17.80;1.00;;;;;;5017683;28;20863;-45
2024/04/09 01:40:03;;;;;;;11.63;4.87;;;17.70;1.00;;;;;;5018103;28;20241;-44
2024/04/09 01:42:29;;;;;;;12.37;4.03;;;17.70;1.00;;;;;;5017876;28;20440;-46
2024/04/09 01:44:54;;;;;;;10.47;4.30;;;17.70;1.00;;;;;;5017546;28;20945;-44
2024/04/09 01:47:21;;;;;;;13.43;4.60;;;17.70;1.00;;;;;;5017232;28;20270;-43
2024/04/09 01:49:47;;;;;;;9.23;4.10;;;17.70;1.00;;;;;;5017875;28;20179;-46
2024/04/09 01:52:13;;;;;;;20.00;4.90;;;17.70;1.00;;;;;;5017800;28;20438;-44
2024/04/09 01:54:43;;;;;;;11.23;4.90;;;17.70;1.00;;;;;;5016763;28;20585;-45
2024/04/09 01:57:09;;;;;;;9.30;3.80;;;17.70;1.00;;;;;;5017346;28;20576;-43
2024/04/09 01:59:35;;;;;;;12.80;4.70;;;17.70;1.00;;;;;;5017472;28;20856;-45
2024/04/09 02:02:00;;;;;;;12.33;4.90;;;17.70;1.00;;;;;;5017508;28;20179;-44
2024/04/09 02:07:48;;;;;;;11.50;4.00;;;17.60;1.00;;;;;;5017164;28;20477;-43
2024/04/09 02:10:14;;;;;;;13.17;4.43;;;17.60;1.00;;;;;;5017076;28;20466;-43
2024/04/09 02:12:40;;;;;;;10.13;4.50;;;17.60;1.00;;;;;;5017713;28;20507;-46
2024/04/09 02:15:07;;;;;;;13.10;4.20;;;17.60;1.00;;;;;;5017513;28;20467;-47
2024/04/09 02:17:32;;;;;;;13.53;5.77;;;17.50;1.00;;;;;;5017456;28;20820;-43
2024/04/09 02:19:58;;;;;;;10.93;4.50;;;17.50;1.00;;;;;;4998882;28;20442;-45
2024/04/09 02:22:24;;;;;;;13.27;4.87;;;17.50;1.00;;;;;;5017449;28;20187;-43
2024/04/09 02:24:51;;;;;;;10.13;4.20;;;17.50;1.00;;;;;;5000140;28;20446;-43
2024/04/09 02:27:17;;;;;;;10.97;4.03;;;17.50;1.00;;;;;;5018256;28;20466;-46
2024/04/09 02:29:42;;;;;;;9.97;4.30;;;17.50;1.00;;;;;;5017515;28;20410;-46
2024/04/09 02:32:10;;;;;;;14.83;4.40;;;17.40;1.00;;;;;;5018560;28;20813;-46
2024/04/09 02:34:36;;;;;;;11.47;5.10;;;17.40;1.00;;;;;;5017900;28;20193;-43
2024/04/09 02:37:05;;;;;;;10.37;4.43;;;17.40;1.00;;;;;;5017406;28;20484;-44
2024/04/09 02:39:31;;;;;;;11.50;5.60;;;17.40;1.00;;;;;;5017972;28;20697;-46
2024/04/09 02:41:57;;;;;;;18.23;5.57;;;17.40;1.00;;;;;;5017058;28;20413;-44
2024/04/09 02:44:23;;;;;;;10.73;4.70;;;17.40;1.00;;;;;;5016517;28;20430;-44
2024/04/09 02:46:52;;;;;;;12.50;6.17;;;17.40;1.00;;;;;;5017004;28;20489;-44
2024/04/09 02:49:17;;;;;;;14.30;4.70;;;17.40;1.00;;;;;;5016667;28;20418;-44
2024/04/09 02:51:43;;;;;;;11.57;5.20;;;17.40;1.00;;;;;;5016738;28;20434;-44
2024/04/09 02:54:09;;;;;;;14.03;4.60;;;17.40;1.00;;;;;;5020029;28;20252;-47
2024/04/09 02:56:35;;;;;;;10.03;4.60;;;17.40;1.00;;;;;;5019567;28;20826;-44
2024/04/09 02:59:01;;;;;;;15.93;5.60;;;17.50;1.00;;;;;;5020378;28;20674;-46
2024/04/09 03:01:27;;;;;;;16.63;5.93;;;17.50;1.00;;;;;;5020048;28;20191;-44
2024/04/09 03:03:52;;;;;;;20.47;5.23;;;17.50;1.00;;;;;;5018616;28;20507;-45
2024/04/09 03:06:18;;;;;;;22.57;6.07;;;17.50;1.00;;;;;;5018533;28;20214;-44
2024/04/09 03:08:44;;;;;;;14.10;5.60;;;17.50;1.00;;;;;;5018581;28;20254;-46
2024/04/09 03:11:11;;;;;;;14.03;5.13;;;17.50;1.00;;;;;;5002158;28;20509;-43
2024/04/09 03:13:37;;;;;;;15.57;5.23;;;17.50;1.00;;;;;;5018767;28;20442;-43
2024/04/09 03:16:14;;;;;;;19.87;5.47;;;17.50;1.00;;;;;;5019454;28;20429;-45
2024/04/09 03:18:40;;;;;;;21.93;5.47;;;17.50;1.00;;;;;;5002038;28;20438;-44
2024/04/09 03:21:05;;;;;;;21.43;4.97;;;17.50;1.00;;;;;;5019384;28;20410;-43
2024/04/09 03:23:31;;;;;;;13.73;5.40;;;17.40;1.00;;;;;;5020129;28;20195;-45
2024/04/09 03:25:57;;;;;;;14.73;5.70;;;17.40;1.00;;;;;;5020286;28;20191;-45
2024/04/09 03:28:22;;;;;;;17.73;4.97;;;17.40;1.00;;;;;;5020058;28;20227;-45
2024/04/09 03:31:01;;;;;;;21.47;6.20;;;17.40;1.00;;;;;;5019583;28;20187;-43
2024/04/09 03:33:27;;;;;;;10.30;5.47;;;17.40;1.00;;;;;;5018084;28;20576;-45
2024/04/09 03:35:54;;;;;;;13.63;5.10;;;17.40;1.00;;;;;;5018210;28;20487;-46
2024/04/09 03:38:20;;;;;;;21.53;6.43;;;17.30;1.00;;;;;;5018650;28;20433;-46
2024/04/09 03:41:12;;;;;;;13.50;5.10;;;17.30;1.00;;;;;;5018170;28;20582;-46
2024/04/09 03:43:38;;;;;;;18.30;5.73;;;17.20;1.00;;;;;;5014115;28;20489;-45
2024/04/09 03:46:08;;;;;;;15.40;4.70;;;17.20;1.00;;;;;;5018244;28;20520;-47
2024/04/09 03:48:34;;;;;;;18.73;5.50;;;17.20;1.00;;;;;;5000977;28;20202;-45
2024/04/09 03:51:01;;;;;;;22.50;7.03;;;17.20;1.00;;;;;;5019224;28;20816;-44
2024/04/09 03:53:27;;;;;;;22.20;7.00;;;17.20;1.00;;;;;;5001263;28;20430;-47
2024/04/09 03:56:03;;;;;;;14.23;5.07;;;17.20;1.00;;;;;;5018438;28;20430;-45
2024/04/09 03:58:40;;;;;;;14.43;5.90;;;17.20;1.00;;;;;;5019177;28;20601;-44
2024/04/09 04:01:08;;;;;;;11.67;5.17;;;17.20;1.00;;;;;;5019395;28;20440;-44
2024/04/09 04:03:35;;;;;;;13.53;5.50;;;17.20;1.00;;;;;;5018356;28;20434;-45
2024/04/09 04:06:02;;;;;;;17.93;5.40;;;17.10;1.00;;;;;;5017754;28;20413;-45
2024/04/09 04:08:32;;;;;;;18.23;5.70;;;17.10;1.00;;;;;;5000331;28;20521;-44
2024/04/09 04:11:02;;;;;;;15.17;6.00;;;17.10;1.00;;;;;;5016851;28;20536;-45
2024/04/09 04:13:30;;;;;;;16.77;5.73;;;17.10;1.00;;;;;;5015984;28;20505;-45
2024/04/09 04:16:06;;;;;;;12.57;5.57;;;17.10;1.00;;;;;;5015948;28;20437;-45
2024/04/09 04:18:42;;;;;;;13.10;5.60;;;17.00;1.00;;;;;;4984204;28;20434;-48
2024/04/09 04:21:10;;;;;;;18.67;6.40;;;17.00;1.00;;;;;;5000675;28;20402;-47
2024/04/09 04:23:36;;;;;;;15.67;5.07;;;17.00;1.00;;;;;;4999272;28;20414;-44
2024/04/09 04:26:03;;;;;;;12.37;4.87;;;16.90;1.00;;;;;;5017381;28;20418;-44
2024/04/09 04:28:34;;;;;;;18.10;6.93;;;16.90;1.00;;;;;;5018570;28;20588;-44
2024/04/09 04:31:00;;;;;;;21.87;7.20;;;16.80;1.00;;;;;;5018098;28;20462;-43
2024/04/09 04:33:27;;;;;;;18.47;6.70;;;16.80;1.00;;;;;;5018215;28;20426;-43
2024/04/09 04:35:53;;;;;;;18.30;7.00;;;16.70;1.00;;;;;;5017561;28;20499;-45
2024/04/09 04:38:19;;;;;;;18.70;6.10;;;16.70;1.00;;;;;;5017519;28;20467;-43
2024/04/09 04:40:45;;;;;;;18.03;5.90;;;16.80;1.00;;;;;;5001331;28;20532;-43
2024/04/09 04:43:14;;;;;;;15.13;6.00;;;16.80;1.00;;;;;;5015951;28;20712;-43
2024/04/09 04:45:43;;;;;;;19.57;5.80;;;16.80;1.00;;;;;;5016369;28;20462;-43
2024/04/09 04:48:09;;;;;;;19.87;7.50;;;16.80;1.00;;;;;;5015814;28;20470;-44
2024/04/09 04:50:35;;;;;;;19.80;6.37;;;16.80;1.00;;;;;;5014069;28;20457;-44
2024/04/09 04:53:02;;;;;;;20.93;6.87;;;16.80;1.00;;;;;;4996198;28;20183;-43
2024/04/09 04:55:28;;;;;;;15.00;5.27;;;16.70;1.00;;;;;;5014612;28;20191;-44
2024/04/09 04:57:53;;;;;;;21.80;6.90;;;16.60;1.00;;;;;;5013288;28;20500;-45
2024/04/09 05:00:19;;;;;;;25.30;7.63;;;16.60;1.00;;;;;;5015977;28;20422;-43
2024/04/09 05:02:45;;;;;;;22.27;5.87;;;16.60;1.00;;;;;;5017366;28;20414;-43
2024/04/09 05:05:12;;;;;;;27.03;6.93;;;16.60;1.00;;;;;;5015087;28;20179;-43
2024/04/09 05:07:38;;;;;;;24.10;6.43;;;16.60;1.00;;;;;;5015303;28;20245;-44
2024/04/09 05:10:04;;;;;;;17.60;5.40;;;16.60;1.00;;;;;;5014481;28;20450;-43
2024/04/09 05:12:30;;;;;;;14.30;5.27;;;16.60;1.00;;;;;;5013056;28;20582;-44
2024/04/09 05:14:56;;;;;;;18.97;6.77;;;16.60;1.00;;;;;;4996706;28;20690;-43
2024/04/09 05:17:21;;;;;;;17.70;6.53;;;16.60;1.00;;;;;;5013147;28;20194;-44
2024/04/09 05:19:51;;;;;;;16.93;6.90;;;16.60;1.00;;;;;;5010733;28;20203;-44
2024/04/09 05:22:18;;;;;;;19.80;6.70;;;16.70;1.00;;;;;;4995277;28;20202;-43
2024/04/09 05:24:47;;;;;;;19.67;5.40;;;16.70;1.00;;;;;;5014335;28;20839;-43
2024/04/09 05:27:13;;;;;;;20.50;6.17;;;16.70;1.00;;;;;;5015079;28;21090;-43
2024/04/09 05:29:40;;;;;;;13.27;5.43;;;16.70;1.00;;;;;;5012677;28;20414;-45
2024/04/09 05:32:06;;;;;;;18.53;7.07;;;16.70;1.00;;;;;;5014319;28;20418;-44
2024/04/09 05:34:31;;;;;;;22.07;4.77;;;16.60;1.00;;;;;;5014455;28;20434;-45
2024/04/09 05:36:57;;;;;;;15.23;5.30;;;16.70;1.00;;;;;;5012779;28;20608;-43
2024/04/09 05:39:23;;;;;;;13.03;4.03;;;16.70;1.00;;;;;;5010025;28;20286;-44
2024/04/09 05:41:49;;;;;;;16.43;4.10;;;16.60;1.00;;;;;;5012027;28;20336;-42
2024/04/09 05:44:15;;;;;;;14.57;4.83;;;16.70;1.00;;;;;;5013346;28;20536;-43
2024/04/09 05:46:40;;;;;;;11.70;4.53;;;16.80;1.00;;;;;;5014441;28;20480;-45
2024/04/09 05:49:09;;;;;;;13.57;3.60;;;16.90;1.00;;;;;;5014057;28;20198;-44
2024/04/09 05:51:35;;;;;;;10.03;3.30;;;16.90;1.00;;;;;;5015612;28;20202;-44
2024/04/09 05:54:00;;;;;;;12.13;5.20;;;17.00;1.00;;;;;;5015053;28;20414;-44
2024/04/09 05:56:26;;;;;;;12.87;3.17;;;17.00;1.00;;;;;;5013145;28;20485;-43
2024/04/09 05:58:52;;;;;;;8.23;3.57;;;17.10;1.00;;;;;;5014912;28;20457;-44
2024/04/09 06:01:18;;;;;;;8.40;3.73;;;17.10;1.00;;;;;;5013844;28;20282;-44
2024/04/09 06:03:44;;;;;;;9.77;3.27;;;17.20;1.00;;;;;;5013701;28;20190;-44
2024/04/09 06:06:10;;;;;;;12.27;3.70;;;17.30;1.00;;;;;;5015469;28;20465;-45
2024/04/09 06:08:36;;;;;;;12.67;3.53;;;17.40;1.00;;;;;;5013803;28;20418;-44
2024/04/09 06:11:03;;;;;;;10.10;3.70;;;17.40;1.00;;;;;;5012089;28;20808;-45
2024/04/09 06:13:29;;;;;;;9.20;3.33;;;17.50;3.10;;;;;;5012615;28;20492;-44
2024/04/09 06:15:55;;;;;;;9.00;3.20;;;17.50;1.00;;;;;;5015746;28;20422;-45
2024/04/09 06:18:21;;;;;;;8.27;3.00;;;17.50;1.00;;;;;;5014717;28;20496;-47
2024/04/09 06:20:47;;;;;;;7.20;2.93;;;17.50;3.30;;;;;;5015016;28;20415;-45
2024/04/09 06:23:12;;;;;;;7.43;2.83;;;17.50;4.70;;;;;;5014783;28;20424;-45
2024/04/09 06:25:39;;;;;;;5.93;3.00;;;17.50;6.70;;;;;;5016726;28;20278;-45
2024/04/09 06:28:06;;;;;;;9.37;2.80;;;17.50;15.20;;;;;;5017306;28;20250;-46
2024/04/09 06:30:31;;;;;;;6.50;2.73;;;17.50;20.10;;;;;;5019729;28;20746;-44
2024/04/09 06:32:57;;;;;;;11.53;3.87;;;17.50;22.70;;;;;;5021067;28;20410;-43
2024/04/09 06:35:23;;;;;;;8.20;2.77;;;17.60;32.80;;;;;;5019555;28;20195;-43
2024/04/09 06:37:49;;;;;;;9.63;2.63;;;17.70;26.00;;;;;;5019263;28;20501;-44
2024/04/09 06:40:15;;;;;;;5.80;2.50;;;17.80;29.40;;;;;;5019174;28;20209;-44
2024/04/09 06:42:40;;;;;;;9.07;2.27;;;17.90;24.40;;;;;;5019022;28;20434;-44
2024/04/09 06:45:06;;;;;;;6.03;2.50;;;17.80;34.30;;;;;;5019489;28;20275;-45
2024/04/09 06:47:32;;;;;;;8.57;2.40;;;18.00;34.10;;;;;;5018806;28;20606;-46
2024/04/09 06:50:04;;;;;;;9.20;2.67;;;18.10;27.30;;;;;;5019455;28;20222;-45
2024/04/09 06:52:30;;;;;;;5.63;2.30;;;18.20;28.10;;;;;;5019474;28;20725;-43
2024/04/09 06:54:57;;;;;;;6.60;2.53;;;18.20;33.40;;;;;;5017440;28;20438;-45
2024/04/09 06:57:22;;;;;;;12.70;2.97;;;18.10;38.60;;;;;;5017099;28;20821;-45
2024/04/09 06:59:48;;;;;;;6.50;2.53;;;18.10;53.20;;;;;;5016382;28;20441;-44
2024/04/09 07:02:14;;;;;;;10.73;2.50;;;18.10;78.80;;;;;;5018118;28;20191;-44
2024/04/09 07:04:39;;;;;;;13.20;2.90;;;18.20;90.60;;;;;;5018719;28;20269;-43
2024/04/09 07:07:05;;;;;;;8.40;2.60;;;18.00;99.40;;;;;;5018471;28;20636;-44
2024/04/09 07:09:31;;;;;;;6.27;2.50;;;17.90;99.90;;;;;;5019144;28;20210;-43
2024/04/09 07:11:57;;;;;;;7.47;2.63;;;17.60;99.90;;;;;;5019486;28;20254;-44
2024/04/09 07:14:22;;;;;;;8.03;2.40;;;17.50;99.90;;;;;;5018305;28;20187;-44
2024/04/09 07:16:49;;;;;;;7.63;2.33;;;17.50;99.90;;;;;;5017905;28;20494;-45
2024/04/09 07:19:15;;;;;;;7.00;2.30;;;17.50;99.90;;;;;;5018292;28;20226;-42
2024/04/09 07:21:41;;;;;;;10.60;2.60;;;17.40;1.00;;;;;;5018212;28;20430;-47
2024/04/09 07:24:07;;;;;;;8.07;3.27;;;17.40;1.00;;;;;;5017928;28;20863;-43
2024/04/09 07:26:33;;;;;;;8.23;2.30;;;17.40;1.00;;;;;;5018417;28;20477;-44
2024/04/09 07:28:58;;;;;;;9.27;2.63;;;17.40;1.00;;;;;;5018304;28;20562;-44
2024/04/09 07:31:24;;;;;;;9.73;2.90;;;17.20;20.00;;;;;;5017782;28;20535;-44
2024/04/09 07:33:49;;;;;;;5.43;2.00;;;17.10;99.90;;;;;;5017029;28;20262;-46
2024/04/09 07:36:15;;;;;;;9.50;2.10;;;16.90;1.00;;;;;;5018310;28;20206;-44
2024/04/09 07:38:41;;;;;;;10.43;2.80;;;16.60;73.70;;;;;;5018086;28;20595;-44
2024/04/09 07:41:07;;;;;;;14.17;2.33;;;16.40;99.90;;;;;;5018574;28;20582;-44
2024/04/09 07:43:33;;;;;;;8.13;1.90;;;16.10;99.90;;;;;;5018575;28;20446;-45
2024/04/09 07:45:59;;;;;;;5.07;1.70;;;16.00;1.00;;;;;;5017356;28;20260;-44
2024/04/09 07:48:25;;;;;;;4.67;1.70;;;15.70;1.00;;;;;;5016813;28;20187;-43
2024/04/09 07:50:51;;;;;;;2.43;1.33;;;15.50;1.00;;;;;;5015574;28;20509;-43
2024/04/09 07:53:18;;;;;;;6.83;1.60;;;15.10;1.00;;;;;;5015353;28;20454;-43
2024/04/09 07:55:44;;;;;;;5.10;1.60;;;14.90;99.90;;;;;;5016498;28;20441;-43
2024/04/09 07:58:11;;;;;;;5.57;1.20;;;14.50;1.00;;;;;;5016428;28;20484;-43
2024/04/09 08:00:37;;;;;;;2.70;0.57;;;14.10;73.30;;;;;;5017612;28;20433;-43
2024/04/09 08:03:03;;;;;;;1.63;0.60;;;13.80;1.00;;;;;;5017661;28;20503;-44
2024/04/09 08:05:28;;;;;;;2.93;0.70;;;13.50;99.90;;;;;;5018021;28;20434;-42
2024/04/09 08:07:55;;;;;;;3.20;0.70;;;13.30;92.80;;;;;;5016048;28;20482;-44
2024/04/09 08:10:21;;;;;;;1.80;0.57;;;13.30;1.00;;;;;;5016601;28;20215;-43
2024/04/09 08:12:50;;;;;;;2.17;0.50;;;13.30;55.60;;;;;;5016996;28;20434;-46
2024/04/09 08:15:18;;;;;;;2.00;0.50;;;13.20;1.00;;;;;;5017523;28;20518;-43
2024/04/09 08:17:44;;;;;;;2.40;0.40;;;12.90;1.00;;;;;;5018473;28;20406;-45
2024/04/09 08:20:10;;;;;;;4.50;0.60;;;12.70;99.90;;;;;;5016872;28;20807;-43
2024/04/09 08:22:37;;;;;;;1.30;0.60;;;12.40;1.00;;;;;;5016927;28;20584;-44
2024/04/09 08:25:04;;;;;;;1.23;0.40;;;12.20;1.00;;;;;;5017250;28;20489;-43
2024/04/09 08:27:33;;;;;;;1.57;0.40;;;12.10;1.00;;;;;;5018007;28;20485;-46
2024/04/09 08:29:59;;;;;;;1.00;0.30;;;12.10;1.00;;;;;;5000481;28;20740;-42
2024/04/09 08:32:25;;;;;;;4.10;0.50;;;12.00;99.90;;;;;;5018559;28;20437;-43
2024/04/09 08:34:52;;;;;;;3.33;0.50;;;11.90;99.90;;;;;;5001401;28;20426;-42
2024/04/09 08:37:18;;;;;;;1.27;0.50;;;11.90;99.90;;;;;;5017975;28;20704;-42
2024/04/09 08:39:44;;;;;;;1.07;0.67;;;11.80;99.90;;;;;;5017653;28;20430;-42
2024/04/09 08:42:09;;;;;;;1.00;0.30;;;11.80;99.90;;;;;;5017395;28;20422;-41
2024/04/09 08:44:36;;;;;;;1.43;0.30;;;11.80;99.90;;;;;;4999045;28;20293;-43
2024/04/09 08:47:03;;;;;;;1.00;0.50;;;11.70;1.00;;;;;;5016872;28;20227;-46
2024/04/09 08:49:30;;;;;;;1.97;0.60;;;11.60;1.00;;;;;;5016277;28;20520;-42
2024/04/09 08:51:56;;;;;;;3.17;0.40;;;11.60;2.70;;;;;;5016605;28;20433;-42
2024/04/09 08:54:23;;;;;;;3.37;0.60;;;11.60;1.00;;;;;;5017015;28;20414;-42
2024/04/09 08:56:51;;;;;;;3.37;0.70;;;11.50;1.00;;;;;;5015800;28;20824;-41
2024/04/09 08:59:16;;;;;;;4.27;0.97;;;11.40;99.90;;;;;;5015433;28;20485;-42
2024/04/09 09:01:42;;;;;;;1.37;0.63;;;11.30;1.00;;;;;;5000174;28;20846;-41
2024/04/09 09:04:07;;;;;;;1.37;0.47;;;11.30;1.00;;;;;;4999489;28;20191;-42
2024/04/09 09:06:46;;;;;;;1.90;0.50;;;11.20;99.90;;;;;;5017145;28;20239;-43
2024/04/09 09:09:22;;;;;;;2.20;0.40;;;11.10;1.00;;;;;;5015288;28;20206;-42
2024/04/09 09:11:47;;;;;;;1.00;0.30;;;11.10;1.00;;;;;;5015600;28;20497;-41
2024/04/09 09:14:14;;;;;;;14.27;0.70;;;11.10;1.00;;;;;;5015181;28;20769;-42
2024/04/09 09:16:40;;;;;;;3.10;0.57;;;11.10;99.90;;;;;;5015618;28;20254;-41
2024/04/09 09:19:05;;;;;;;1.43;0.50;;;11.10;99.90;;;;;;4998657;28;20859;-42
2024/04/09 09:21:31;;;;;;;1.93;0.30;;;11.10;1.00;;;;;;4996173;28;20230;-43
2024/04/09 09:23:58;;;;;;;1.00;0.50;;;11.00;1.00;;;;;;5014752;28;20253;-41
2024/04/09 09:26:24;;;;;;;2.27;0.50;;;10.80;1.00;;;;;;5015673;28;20884;-41
2024/04/09 09:29:01;;;;;;;1.13;0.60;;;10.80;9.00;;;;;;5014837;28;20449;-44
2024/04/09 09:31:27;;;;;;;1.67;0.60;;;10.90;78.60;;;;;;5016173;28;20495;-42
2024/04/09 09:33:56;;;;;;;1.40;0.50;;;10.90;1.00;;;;;;4998583;28;20426;-44
2024/04/09 09:36:21;;;;;;;2.60;0.53;;;10.80;1.00;;;;;;4998283;28;20206;-42
2024/04/09 09:38:47;;;;;;;1.23;0.60;;;10.90;1.00;;;;;;4998909;28;20801;-42
2024/04/09 09:41:13;;;;;;;3.13;0.90;;;10.90;36.90;;;;;;4998593;28;20346;-43
2024/04/09 09:43:39;;;;;;;1.80;0.60;;;10.90;16.50;;;;;;4997679;28;20961;-42
2024/04/09 09:46:05;;;;;;;2.23;0.63;;;10.90;1.00;;;;;;5012948;28;20433;-44
2024/04/09 09:48:31;;;;;;;1.80;1.03;;;10.90;1.00;;;;;;4997036;28;20460;-42
2024/04/09 09:50:57;;;;;;;2.30;0.53;;;10.90;1.00;;;;;;4997072;28;20184;-42
2024/04/09 09:53:23;;;;;;;1.83;0.47;;;11.00;1.00;;;;;;4997526;28;21000;-43
2024/04/09 09:55:53;;;;;;;1.17;0.40;;;11.00;99.90;;;;;;5014965;28;20434;-46
2024/04/09 09:58:22;;;;;;;1.57;0.60;;;11.00;1.00;;;;;;4997524;28;20434;-42
2024/04/09 10:00:49;;;;;;;2.57;0.90;;;10.80;1.00;;;;;;5015633;28;20456;-42
2024/04/09 10:03:15;;;;;;;1.03;0.50;;;10.80;49.20;;;;;;5001838;28;20508;-42
2024/04/09 10:05:41;;;;;;;1.37;0.50;;;10.90;99.90;;;;;;5020281;28;20509;-43
2024/04/09 10:08:26;;;;;;;1.10;0.60;;;10.90;88.70;;;;;;5001227;28;20474;-43
2024/04/09 10:10:52;;;;;;;1.07;0.53;;;11.00;1.00;;;;;;5019594;28;20324;-43
2024/04/09 10:13:20;;;;;;;0.80;0.40;;;11.00;1.00;;;;;;5020427;28;20454;-44
2024/04/09 10:15:48;;;;;;;0.90;0.50;;;11.00;1.00;;;;;;5019912;28;20202;-44
2024/04/09 10:18:37;;;;;;;1.83;0.60;;;11.00;1.00;;;;;;5020021;28;20429;-42
2024/04/09 10:21:05;;;;;;;1.67;0.50;;;10.90;1.00;;;;;;5020133;28;20410;-42
2024/04/09 10:23:35;;;;;;;1.20;0.70;;;10.90;1.00;;;;;;5020680;28;20422;-44
2024/04/09 10:26:01;;;;;;;1.43;0.63;;;11.00;99.90;;;;;;5021160;28;21059;-42
2024/04/09 10:28:28;;;;;;;1.53;0.50;;;10.80;1.00;;;;;;5003481;28;20533;-47
2024/04/09 10:30:54;;;;;;;0.80;0.40;;;10.60;99.90;;;;;;5020708;28;20481;-46
2024/04/09 10:33:27;;;;;;;2.17;1.43;;;10.70;99.90;;;;;;5002430;28;20472;-42
2024/04/09 10:35:58;;;;;;;2.23;0.40;;;;;;;;;;5020521;28;20211;-44
2024/04/09 10:38:27;;;;;;;0.90;0.50;;;;;;;;;;5019216;28;20662;-47
2024/04/09 10:41:00;;;;;;;1.57;0.60;;;;;;;;;;5020017;28;20441;-43
2024/04/09 10:43:26;;;;;;;0.90;0.33;;;;;;;;;;5019951;28;20504;-43
2024/04/09 10:45:52;;;;;;;0.80;0.40;;;;;;;;;;5019228;28;20508;-45
2024/04/09 10:48:18;;;;;;;1.07;0.50;;;;;;;;;;5019219;28;21031;-43
2024/04/09 10:50:44;;;;;;;1.73;0.40;;;;;;;;;;5019623;28;20417;-42
2024/04/09 10:53:11;;;;;;;1.47;0.50;;;10.60;99.90;;;;;;5018924;28;20457;-44
2024/04/09 10:55:37;;;;;;;0.77;0.33;;;10.50;1.00;;;;;;5019175;28;20938;-46
2024/04/09 10:58:03;;;;;;;0.90;0.40;;;10.40;93.90;;;;;;5000842;28;20438;-42
2024/04/09 11:00:29;;;;;;;2.50;0.70;;;10.40;99.90;;;;;;5018857;28;20496;-42
2024/04/09 11:02:55;;;;;;;2.03;1.13;;;10.40;99.90;;;;;;5019351;28;20183;-42
2024/04/09 11:05:20;;;;;;;3.80;1.80;;;10.30;73.10;;;;;;5018580;28;20195;-43
2024/04/09 11:07:48;;;;;;;2.87;1.70;;;10.10;56.20;;;;;;5019128;28;20273;-42
2024/04/09 11:10:19;;;;;;;1.67;0.70;;;10.00;99.90;;;;;;5019157;28;20230;-41
2024/04/09 11:12:51;;;;;;;3.47;0.60;;;10.20;99.90;;;;;;5017408;28;20452;-42
2024/04/09 11:15:17;;;;;;;2.73;0.40;;;10.30;99.90;;;;;;5017428;28;20429;-42
2024/04/09 11:17:43;;;;;;;1.80;0.60;;;10.30;99.90;;;;;;5000377;28;20450;-42
2024/04/09 11:20:11;;;;;;;3.80;0.47;;;10.20;99.90;;;;;;5001198;28;20588;-42
2024/04/09 11:22:43;;;;;;;1.37;0.40;;;10.20;99.90;;;;;;4998818;28;20780;-45
2024/04/09 11:25:24;;;;;;;1.93;0.70;;;10.20;99.90;;;;;;5016658;28;20429;-42
2024/04/09 11:27:51;;;;;;;1.57;0.60;;;10.10;1.00;;;;;;4983247;28;20528;-42
2024/04/09 11:30:28;;;;;;;1.43;0.50;;;10.10;1.00;;;;;;5000433;28;20442;-43
2024/04/09 11:32:55;;;;;;;0.90;0.60;;;10.10;1.00;;;;;;4983843;28;20452;-42
2024/04/09 11:35:22;;;;;;;1.33;0.70;;;9.90;1.00;;;;;;4979178;28;20495;-43
2024/04/09 11:37:55;;;;;;;2.23;0.63;;;9.90;99.90;;;;;;4997188;28;20782;-42
2024/04/09 11:40:22;;;;;;;1.57;0.50;;;9.80;52.10;;;;;;4998764;28;20415;-44
2024/04/09 11:42:52;;;;;;;1.13;0.60;;;9.80;99.90;;;;;;4999157;28;20415;-43
2024/04/09 11:45:23;;;;;;;1.33;0.90;;;9.80;99.90;;;;;;4966094;28;20606;-42
2024/04/09 11:47:49;;;;;;;1.97;0.80;;;9.80;1.00;;;;;;4998962;28;20793;-43
2024/04/09 11:50:15;;;;;;;1.20;0.67;;;9.80;99.90;;;;;;4982000;28;20474;-47
2024/04/09 11:52:41;;;;;;;1.67;0.50;;;10.00;94.70;;;;;;5000180;28;20431;-43
2024/04/09 11:55:08;;;;;;;1.37;0.40;;;9.80;1.00;;;;;;4982446;28;20441;-46
2024/04/09 11:57:40;;;;;;;1.53;0.40;;;9.80;1.00;;;;;;4999642;28;20191;-44
2024/04/09 12:00:07;;;;;;;1.27;0.70;;;9.60;99.90;;;;;;4981151;28;20427;-43
2024/04/09 12:02:33;;;;;;;2.17;0.80;;;9.60;1.00;;;;;;4997957;28;20435;-43
2024/04/09 12:04:59;;;;;;;2.20;0.70;;;9.60;1.00;;;;;;4981714;28;20427;-44
2024/04/09 12:07:25;;;;;;;1.00;0.40;;;9.60;1.00;;;;;;4997773;28;20475;-43
2024/04/09 12:09:50;;;;;;;1.40;0.50;;;9.70;99.90;;;;;;4998522;28;20562;-42
2024/04/09 12:12:17;;;;;;;1.30;0.57;;;9.60;1.00;;;;;;4999053;28;20251;-43
2024/04/09 12:14:42;;;;;;;1.10;0.50;;;9.70;1.00;;;;;;4997411;28;20223;-42
2024/04/09 12:17:08;;;;;;;1.00;0.57;;;9.70;99.90;;;;;;4997333;28;20481;-41
2024/04/09 12:19:37;;;;;;;0.93;0.60;;;9.60;1.00;;;;;;4963487;28;20793;-42
2024/04/09 12:22:03;;;;;;;2.60;0.67;;;9.50;99.90;;;;;;4963835;28;20465;-42
2024/04/09 12:24:31;;;;;;;1.20;0.43;;;9.50;99.90;;;;;;4962599;28;20439;-42
2024/04/09 12:27:00;;;;;;;0.90;0.50;;;9.40;93.10;;;;;;4980621;28;20490;-42
2024/04/09 12:29:28;;;;;;;0.93;0.47;;;9.40;58.70;;;;;;4999180;28;20881;-42
2024/04/09 12:31:54;;;;;;;1.20;0.53;;;9.40;99.90;;;;;;4999620;28;20439;-43
2024/04/09 12:34:21;;;;;;;1.27;0.77;;;9.50;1.00;;;;;;4998586;28;20419;-42
2024/04/09 12:36:47;;;;;;;1.10;0.50;;;9.50;99.90;;;;;;4981988;28;20424;-45
2024/04/09 12:39:12;;;;;;;2.83;0.57;;;9.50;99.90;;;;;;4981522;28;20814;-42
2024/04/09 12:41:39;;;;;;;1.10;0.50;;;9.50;99.90;;;;;;4996788;28;20470;-42
2024/04/09 12:44:04;;;;;;;0.90;0.50;;;9.50;99.90;;;;;;4999172;28;20267;-42
2024/04/09 12:46:30;;;;;;;1.20;0.80;;;9.60;99.90;;;;;;4998527;28;20850;-43
2024/04/09 12:48:56;;;;;;;1.63;0.77;;;9.70;17.20;;;;;;4979698;28;20196;-43
2024/04/09 12:51:22;;;;;;;1.70;0.70;;;9.60;99.90;;;;;;4999046;28;20269;-44
2024/04/09 12:53:48;;;;;;;2.10;0.87;;;9.50;1.00;;;;;;4981726;28;20214;-44
2024/04/09 12:56:13;;;;;;;1.47;0.87;;;9.50;1.00;;;;;;4999113;28;20427;-44